Mc Intire, Iowa
Current Conditions -  °F | °C
As of 4:16 AM on Sunday 25 Jan 2015 (Local Time) from KAUM Reporting Station
Light Snow Light Snow  
Wind Chill: 26°   Ceiling: 3000
Heat Index: 34°   Visibility: 3mi
Dew Point: 30°   Wind: 10mph
Humidity: 87%   Direction: 40°NE
Pressure: 29.69"   Gusts: 17mph
Location:  43.4645°N, 92.6131°W
Report Text: KAUM 251016Z AUTO 04009G15KT 3SM -SN SCT023 BKN030 OVC045 01/M01 A2969 RMK AO2
Loading
Personal Weather Stations






























Interactive Weather Map New forecast layout! Learn more

10-Day Weather Forecast

Advertisements
Track Severe Weather on mobile